Time;durP1;ratioP1;P1;durP2;ratioP2;P2;SDS_P1;SDS_P2;PMS_P1;PMS_P2;Temp;Humidity;BMP_temperature;BMP_pressure;BME280_temperature;BME280_humidity;BME280_pressure;Samples;Min_cycle;Max_cycle;Signal;HPM_P1;HPM_P2
2022/05/28 00:33:11;;;;;;;2.22;1.50;;;13.90;93.00;;;;;;4903650;29;20265;-88
2022/05/28 01:34:45;;;;;;;2.35;1.95;;;14.00;93.60;;;;;;4854564;29;20224;-88
2022/05/28 01:44:31;;;;;;;2.58;1.73;;;14.00;93.30;;;;;;4768836;30;20678;-88
2022/05/28 06:27:25;;;;;;;9.13;2.58;;;14.10;37.70;;;;;;4946887;29;20189;-86
2022/05/28 08:25:14;;;;;;;6.32;2.25;;;18.10;20.40;;;;;;4954999;28;20216;-89
2022/05/28 08:27:49;;;;;;;7.43;2.55;;;21.00;15.80;;;;;;4949811;28;20293;-87
2022/05/28 08:30:16;;;;;;;7.80;2.58;;;22.90;12.80;;;;;;4949066;28;20201;-86
2022/05/28 08:32:43;;;;;;;7.75;2.55;;;22.90;12.90;;;;;;4947620;28;20202;-86
2022/05/28 08:35:20;;;;;;;6.78;2.58;;;22.80;12.80;;;;;;4948032;28;20214;-86
2022/05/28 08:37:47;;;;;;;6.63;2.33;;;21.30;13.70;;;;;;4951968;28;20209;-88
2022/05/28 08:40:16;;;;;;;5.18;2.08;;;21.70;14.40;;;;;;4948913;28;20204;-86
2022/05/28 08:42:43;;;;;;;5.13;2.38;;;22.00;13.50;;;;;;4948014;28;20216;-85
2022/05/28 08:45:15;;;;;;;5.45;2.30;;;22.50;13.00;;;;;;4944916;28;20206;-84
2022/05/28 08:47:50;;;;;;;5.22;2.40;;;24.10;13.60;;;;;;4948893;28;20201;-82
2022/05/28 08:50:17;;;;;;;7.18;3.70;;;25.50;11.30;;;;;;4949621;28;20664;-83
2022/05/28 08:53:01;;;;;;;7.18;3.30;;;26.10;8.50;;;;;;4954064;28;20203;-84
2022/05/28 08:55:44;;;;;;;15.23;10.52;;;26.80;8.60;;;;;;4963291;28;20212;-87
2022/05/28 08:58:23;;;;;;;15.43;10.55;;;27.80;7.10;;;;;;4960385;28;20732;-83
2022/05/28 09:01:07;;;;;;;13.73;5.85;;;27.00;8.00;;;;;;4969531;28;20200;-83
2022/05/28 09:04:04;;;;;;;10.55;5.70;;;25.80;7.60;;;;;;4951892;28;20652;-82
2022/05/28 09:06:40;;;;;;;7.35;4.10;;;26.40;8.50;;;;;;4958245;28;20201;-81
2022/05/28 09:09:10;;;;;;;5.40;2.63;;;26.70;8.40;;;;;;4958634;28;20224;-81
2022/05/28 09:11:43;;;;;;;6.43;5.00;;;27.10;6.60;;;;;;4959460;28;20221;-82
2022/05/28 09:14:21;;;;;;;6.18;4.07;;;26.60;6.60;;;;;;4963771;28;20209;-82
2022/05/28 09:16:58;;;;;;;5.72;5.15;;;27.10;5.10;;;;;;4962218;28;20639;-82
2022/05/28 09:19:28;;;;;;;9.25;7.95;;;27.50;5.30;;;;;;4959867;28;20223;-82
2022/05/28 09:21:55;;;;;;;7.10;4.55;;;27.40;5.50;;;;;;4963879;28;20223;-84
2022/05/28 09:24:33;;;;;;;13.05;11.77;;;26.40;4.30;;;;;;4977637;28;20204;-81
2022/05/28 09:27:21;;;;;;;7.38;6.40;;;27.90;3.80;;;;;;4965044;28;20248;-81
2022/05/28 09:30:09;;;;;;;7.22;5.20;;;27.60;3.60;;;;;;4964824;28;20221;-82
2022/05/28 09:32:48;;;;;;;3.17;2.28;;;28.40;4.20;;;;;;4955146;28;20200;-81
2022/05/28 09:35:51;;;;;;;5.68;2.17;;;28.80;2.40;;;;;;4959967;28;20223;-82
2022/05/28 09:38:28;;;;;;;4.55;2.25;;;29.10;1.80;;;;;;4960745;28;20232;-83
2022/05/28 09:41:03;;;;;;;2.67;2.05;;;28.20;2.20;;;;;;4952053;28;20589;-84
2022/05/28 09:43:55;;;;;;;5.07;2.10;;;27.50;2.50;;;;;;4957501;28;20207;-82
2022/05/28 09:46:40;;;;;;;3.45;2.20;;;27.10;5.10;;;;;;4957916;28;20208;-83
2022/05/28 09:49:13;;;;;;;3.80;2.53;;;27.00;5.50;;;;;;4959131;28;20220;-83
2022/05/28 09:51:50;;;;;;;8.25;4.72;;;27.30;3.40;;;;;;4954447;28;20209;-85
2022/05/28 09:54:33;;;;;;;4.53;3.20;;;27.70;4.80;;;;;;4962574;28;20208;-84
2022/05/28 09:57:03;;;;;;;6.82;2.30;;;28.80;3.70;;;;;;4951622;28;20201;-83
2022/05/28 09:59:35;;;;;;;3.42;2.17;;;28.80;2.10;;;;;;4959121;28;20205;-83
2022/05/28 10:02:09;;;;;;;3.47;2.47;;;29.30;2.70;;;;;;4964243;28;20204;-83
2022/05/28 10:04:48;;;;;;;3.55;2.47;;;28.40;3.50;;;;;;4967932;28;20204;-83
2022/05/28 10:07:16;;;;;;;2.85;2.00;;;27.80;2.40;;;;;;4971337;28;20243;-82
2022/05/28 10:09:53;;;;;;;4.25;3.47;;;27.50;4.40;;;;;;4967028;28;20208;-82
2022/05/28 10:12:28;;;;;;;3.65;2.05;;;28.00;4.10;;;;;;4967008;28;20205;-83
2022/05/28 10:15:01;;;;;;;4.57;3.45;;;29.00;2.60;;;;;;4958310;28;20211;-82
2022/05/28 10:17:30;;;;;;;3.38;2.30;;;28.00;3.30;;;;;;4960066;28;20208;-83
2022/05/28 10:19:58;;;;;;;2.30;2.08;;;27.70;4.10;;;;;;4955126;28;20211;-83
2022/05/28 10:22:27;;;;;;;4.05;2.17;;;27.80;6.00;;;;;;4958321;28;20204;-83
2022/05/28 10:25:01;;;;;;;4.93;2.20;;;27.60;5.10;;;;;;4959728;28;20219;-82
2022/05/28 10:27:35;;;;;;;3.20;2.05;;;26.50;4.90;;;;;;4962194;28;20276;-83
2022/05/28 10:30:07;;;;;;;4.90;3.25;;;25.20;7.30;;;;;;4965717;28;20653;-82
2022/05/28 10:32:51;;;;;;;3.03;2.33;;;25.30;7.20;;;;;;4960746;28;20589;-80
2022/05/28 10:35:37;;;;;;;5.00;2.13;;;25.10;8.60;;;;;;4947181;28;20209;-83
2022/05/28 10:38:09;;;;;;;2.22;1.70;;;24.20;8.70;;;;;;4958446;28;20209;-82
2022/05/28 10:40:46;;;;;;;5.65;4.57;;;23.10;10.30;;;;;;4956006;28;20205;-84
2022/05/28 10:43:43;;;;;;;22.73;19.70;;;22.10;12.30;;;;;;4961154;28;20700;-85
2022/05/28 10:46:38;;;;;;;3.15;1.40;;;22.40;11.30;;;;;;4955180;28;20217;-85
2022/05/28 10:49:27;;;;;;;2.90;1.40;;;23.30;10.70;;;;;;4953715;28;20228;-84
2022/05/28 10:52:25;;;;;;;2.53;1.77;;;24.10;9.20;;;;;;4957272;28;20212;-82
2022/05/28 10:55:21;;;;;;;4.10;1.55;;;25.10;10.20;;;;;;4949042;28;20194;-82
2022/05/28 10:58:03;;;;;;;4.25;1.88;;;25.50;8.80;;;;;;4952829;28;20204;-82
2022/05/28 11:00:58;;;;;;;3.63;1.80;;;25.60;10.50;;;;;;4957526;28;20586;-82
2022/05/28 11:03:59;;;;;;;2.58;1.67;;;24.00;7.90;;;;;;4950362;28;20209;-82
2022/05/28 11:06:51;;;;;;;8.20;7.00;;;22.90;10.10;;;;;;4965166;28;20208;-86
2022/05/28 11:09:26;;;;;;;4.70;2.25;;;21.80;12.10;;;;;;4909007;29;20242;-88
2022/05/28 11:12:02;;;;;;;2.15;1.55;;;21.00;13.80;;;;;;4896118;29;20214;-87
2022/05/28 11:14:56;;;;;;;3.65;1.70;;;21.40;15.60;;;;;;4897025;29;20212;-88
2022/05/28 11:17:40;;;;;;;4.10;1.73;;;21.40;16.40;;;;;;4910106;29;20217;-88
2022/05/28 11:20:39;;;;;;;3.28;1.55;;;21.30;14.60;;;;;;4880860;29;20214;-88
2022/05/28 11:23:33;;;;;;;6.78;4.45;;;21.30;14.60;;;;;;4888498;29;20219;-88
2022/05/28 11:26:12;;;;;;;2.45;1.38;;;21.40;15.00;;;;;;4905094;29;20213;-87
2022/05/28 11:32:27;;;;;;;23.85;19.92;;;20.50;14.10;;;;;;4902353;29;20194;-88
2022/05/28 11:35:08;;;;;;;5.75;1.70;;;20.10;15.70;;;;;;4894254;29;20212;-87
2022/05/28 11:38:04;;;;;;;1.90;1.30;;;19.90;17.00;;;;;;4915010;29;20203;-88
2022/05/28 11:44:13;;;;;;;5.50;1.40;;;20.60;15.80;;;;;;4901960;29;20211;-88
2022/05/28 11:47:20;;;;;;;4.22;1.80;;;20.90;18.60;;;;;;4941836;28;20300;-88
2022/05/28 11:53:21;;;;;;;4.25;1.50;;;20.30;13.80;;;;;;4970674;28;20211;-89
2022/05/28 11:56:07;;;;;;;2.20;1.60;;;20.20;15.80;;;;;;4968998;28;20276;-88
2022/05/28 12:04:57;;;;;;;5.00;1.63;;;20.10;13.90;;;;;;4969806;28;20277;-88
2022/05/28 12:17:39;;;;;;;3.67;1.40;;;19.80;15.50;;;;;;4969999;28;20232;-88
2022/05/28 13:04:39;;;;;;;1.80;1.20;;;19.50;13.50;;;;;;4955315;29;20204;-88
2022/05/28 13:14:46;;;;;;;5.07;1.35;;;18.90;13.70;;;;;;4964312;28;20271;-87
2022/05/28 13:24:44;;;;;;;2.17;1.40;;;19.20;13.40;;;;;;4960872;28;20185;-87
2022/05/28 13:41:13;;;;;;;4.90;1.45;;;19.00;13.20;;;;;;4954664;29;20705;-87
2022/05/28 13:44:21;;;;;;;3.58;1.38;;;19.20;13.10;;;;;;4954042;29;20249;-88
2022/05/28 13:46:59;;;;;;;2.92;1.50;;;19.20;13.20;;;;;;4876823;29;20255;-88
2022/05/28 13:49:37;;;;;;;5.07;1.50;;;18.90;15.00;;;;;;4943485;29;20225;-87
2022/05/28 13:56:28;;;;;;;7.35;1.70;;;18.30;15.10;;;;;;4939809;29;20214;-87
2022/05/28 14:03:15;;;;;;;3.17;1.50;;;18.50;14.90;;;;;;4954624;29;20193;-87
2022/05/28 14:09:13;;;;;;;3.13;1.10;;;18.10;15.80;;;;;;4960633;28;20253;-88
2022/05/28 14:11:43;;;;;;;4.72;1.30;;;18.00;15.60;;;;;;4976075;28;20205;-87
2022/05/28 14:34:13;;;;;;;1.95;1.30;;;18.30;14.60;;;;;;4946560;29;20206;-87
2022/05/28 14:37:52;;;;;;;3.55;1.30;;;18.30;14.20;;;;;;4912934;29;20286;-87
2022/05/28 14:46:50;;;;;;;2.95;1.15;;;18.10;15.60;;;;;;4907569;29;20611;-87
2022/05/28 15:15:13;;;;;;;4.20;1.63;;;17.80;14.80;;;;;;4897028;29;20234;-88
2022/05/28 15:17:59;;;;;;;3.05;1.40;;;17.60;16.20;;;;;;4904832;29;20253;-86
2022/05/28 15:20:29;;;;;;;3.22;1.55;;;17.50;15.70;;;;;;4916541;29;20215;-86
2022/05/28 15:23:33;;;;;;;2.50;1.40;;;17.00;15.90;;;;;;4908084;29;20271;-85
2022/05/28 15:47:04;;;;;;;;;;;;;;;;;;;;;
2022/05/28 16:02:24;;;;;;;1.67;1.00;;;17.40;17.30;;;;;;5757881;23;20228;-88
2022/05/28 16:19:26;;;;;;;3.90;1.25;;;17.40;16.30;;;;;;4970127;28;20199;-89
2022/05/28 16:22:50;;;;;;;4.25;1.40;;;17.30;17.30;;;;;;4969665;28;20205;-89
2022/05/28 16:29:22;;;;;;;2.70;1.40;;;17.00;16.00;;;;;;4972924;29;20250;-88
2022/05/28 16:44:45;;;;;;;2.42;1.33;;;16.40;17.00;;;;;;4936821;29;20226;-88
2022/05/28 16:54:41;;;;;;;1.65;1.20;;;16.30;17.40;;;;;;4881063;29;20191;-87
2022/05/28 17:27:47;;;;;;;2.90;1.30;;;15.90;16.90;;;;;;4898663;29;20228;-87
2022/05/28 18:59:38;;;;;;;4.57;1.70;;;14.00;22.60;;;;;;4726051;30;20224;-87
2022/05/28 19:50:10;;;;;;;4.28;1.83;;;13.40;27.20;;;;;;4908844;29;20218;-87
2022/05/28 19:59:25;;;;;;;6.55;1.95;;;13.10;29.50;;;;;;4855014;29;20196;-88
2022/05/28 20:08:42;;;;;;;3.85;2.05;;;12.70;31.60;;;;;;4855596;29;20221;-89
2022/05/28 20:11:16;;;;;;;3.75;2.50;;;12.60;33.70;;;;;;4907404;29;20241;-88
2022/05/28 20:13:45;;;;;;;3.45;2.22;;;12.50;33.80;;;;;;4908530;29;20208;-88
2022/05/28 20:16:44;;;;;;;5.47;3.00;;;12.50;34.80;;;;;;4902025;29;20216;-87
2022/05/28 20:19:11;;;;;;;5.63;2.97;;;12.20;35.30;;;;;;4903790;29;20234;-88
2022/05/28 20:21:39;;;;;;;6.90;3.28;;;12.20;38.00;;;;;;4903055;29;20207;-87
2022/05/28 20:27:40;;;;;;;8.88;3.40;;;12.20;41.50;;;;;;4906044;29;20567;-87
2022/05/28 20:30:18;;;;;;;7.68;3.15;;;12.20;40.20;;;;;;4900495;29;20226;-89
2022/05/28 20:32:51;;;;;;;7.10;3.30;;;12.20;40.20;;;;;;4908872;29;20267;-87
2022/05/28 20:35:30;;;;;;;6.68;3.03;;;12.10;40.70;;;;;;4912393;29;20285;-87
2022/05/28 20:38:22;;;;;;;7.05;3.40;;;12.10;42.30;;;;;;4916968;29;20207;-90
2022/05/28 20:40:50;;;;;;;5.75;2.75;;;12.00;42.30;;;;;;4907985;29;20231;-87
2022/05/28 20:43:45;;;;;;;5.63;2.63;;;12.00;43.90;;;;;;4912712;29;20217;-86
2022/05/28 20:46:40;;;;;;;8.80;3.25;;;11.80;45.20;;;;;;4906633;29;20239;-90
2022/05/28 20:49:08;;;;;;;7.07;3.58;;;11.80;47.80;;;;;;4905294;29;20212;-87
2022/05/28 20:51:50;;;;;;;6.93;3.60;;;11.80;48.40;;;;;;4916255;29;20223;-87
2022/05/28 20:54:18;;;;;;;6.70;3.10;;;11.70;47.40;;;;;;4907210;29;20212;-87
2022/05/28 20:56:57;;;;;;;6.95;3.40;;;11.60;48.20;;;;;;4913736;29;20654;-88
2022/05/28 20:59:40;;;;;;;6.05;3.30;;;11.50;48.10;;;;;;4907346;29;20217;-87
2022/05/28 21:02:26;;;;;;;5.72;3.15;;;11.50;48.10;;;;;;4908732;29;20214;-87
2022/05/28 21:04:57;;;;;;;6.65;3.15;;;11.40;48.00;;;;;;4916506;29;20203;-86
2022/05/28 21:07:26;;;;;;;6.68;3.10;;;11.50;48.10;;;;;;4913855;29;20296;-87
2022/05/28 21:10:35;;;;;;;4.90;3.05;;;11.50;48.10;;;;;;4908026;29;20262;-87
2022/05/28 21:13:26;;;;;;;3.95;2.78;;;11.50;48.10;;;;;;4902401;29;20221;-89
2022/05/28 21:15:58;;;;;;;6.32;3.53;;;11.40;49.30;;;;;;4915550;29;20203;-88
2022/05/28 21:18:37;;;;;;;7.32;3.20;;;11.30;49.80;;;;;;4913790;29;20207;-87
2022/05/28 21:21:13;;;;;;;7.05;3.05;;;11.20;52.10;;;;;;4911324;29;20203;-87
2022/05/28 21:23:40;;;;;;;7.10;3.15;;;11.20;51.90;;;;;;4912600;29;20696;-88
2022/05/28 21:32:15;;;;;;;5.05;3.38;;;11.00;54.60;;;;;;4911307;29;20703;-88
2022/05/28 21:34:45;;;;;;;7.47;2.90;;;11.10;54.20;;;;;;4911635;29;20222;-88
2022/05/28 21:37:20;;;;;;;10.68;3.80;;;11.10;54.40;;;;;;4908745;29;20203;-88
2022/05/28 21:39:51;;;;;;;6.88;3.38;;;11.00;54.90;;;;;;4910435;29;20203;-87
2022/05/28 21:42:19;;;;;;;5.60;3.08;;;11.10;53.70;;;;;;4912510;29;20585;-87
2022/05/28 21:45:09;;;;;;;5.90;3.28;;;10.90;54.60;;;;;;4908546;29;20238;-87
2022/05/28 21:48:32;;;;;;;6.78;3.85;;;11.00;55.20;;;;;;4912506;29;20241;-87
2022/05/28 21:51:04;;;;;;;7.32;3.47;;;10.90;55.30;;;;;;4920259;29;20237;-87
2022/05/28 21:53:50;;;;;;;8.88;3.90;;;10.90;56.50;;;;;;4911550;29;20221;-86
2022/05/28 21:56:27;;;;;;;6.38;3.85;;;10.90;57.40;;;;;;4919804;29;20207;-86
2022/05/28 21:59:14;;;;;;;5.85;3.42;;;10.90;59.70;;;;;;4893507;29;20231;-86
2022/05/28 22:01:41;;;;;;;8.68;4.32;;;10.80;63.20;;;;;;4900880;29;20306;-86
2022/05/28 22:04:20;;;;;;;6.50;4.28;;;10.80;63.10;;;;;;4902841;29;20226;-87
2022/05/28 22:06:58;;;;;;;5.95;3.70;;;10.90;63.80;;;;;;4910472;29;20713;-87
2022/05/28 22:09:26;;;;;;;6.78;3.53;;;10.80;65.10;;;;;;4904944;29;20760;-87
2022/05/28 22:11:54;;;;;;;5.65;3.72;;;10.80;66.10;;;;;;4903661;29;20230;-87
2022/05/28 22:14:56;;;;;;;5.47;3.13;;;10.70;67.20;;;;;;4910952;29;20753;-87
2022/05/28 22:17:29;;;;;;;6.65;3.53;;;10.70;68.70;;;;;;4899152;29;20274;-88
2022/05/28 22:20:02;;;;;;;6.45;3.65;;;10.60;69.90;;;;;;4920401;29;20207;-87
2022/05/28 22:22:46;;;;;;;6.32;3.92;;;10.50;73.50;;;;;;4909050;29;20207;-87
2022/05/28 22:25:14;;;;;;;6.75;4.18;;;10.50;73.60;;;;;;4904717;29;20224;-87
2022/05/28 22:27:47;;;;;;;4.93;3.60;;;10.40;73.50;;;;;;4905780;29;20207;-87
2022/05/28 22:30:38;;;;;;;8.15;3.90;;;10.40;73.50;;;;;;4903996;29;20295;-88
2022/05/28 22:33:26;;;;;;;5.65;3.50;;;10.30;73.30;;;;;;4904298;29;20235;-87
2022/05/28 22:36:20;;;;;;;10.48;4.20;;;10.30;73.30;;;;;;4908508;29;20207;-87
2022/05/28 22:39:32;;;;;;;8.73;3.75;;;10.20;73.20;;;;;;4909590;29;20270;-87
2022/05/28 22:42:21;;;;;;;7.68;3.50;;;10.20;74.00;;;;;;4911454;29;20322;-87
2022/05/28 22:47:42;;;;;;;9.40;3.35;;;10.10;73.10;;;;;;4908003;29;20218;-87
2022/05/28 22:50:11;;;;;;;6.43;3.40;;;9.90;74.90;;;;;;4903507;29;20214;-87
2022/05/28 22:52:51;;;;;;;6.72;3.35;;;9.80;76.60;;;;;;4919810;29;20661;-87
2022/05/28 22:55:18;;;;;;;8.73;3.65;;;9.80;77.70;;;;;;4908475;29;20221;-87
2022/05/28 22:57:58;;;;;;;5.38;3.50;;;9.70;77.90;;;;;;4896042;29;20278;-87
2022/05/28 23:00:25;;;;;;;6.45;3.67;;;9.70;78.70;;;;;;4919251;29;20251;-87
2022/05/28 23:03:10;;;;;;;5.93;3.72;;;9.70;79.90;;;;;;4896030;29;20227;-87
2022/05/28 23:05:47;;;;;;;6.10;3.55;;;9.90;80.00;;;;;;4899894;29;20234;-87
2022/05/28 23:08:16;;;;;;;9.65;3.88;;;9.90;80.10;;;;;;4904782;29;20213;-87
2022/05/28 23:10:45;;;;;;;5.88;3.30;;;9.80;79.00;;;;;;4906149;29;20208;-87
2022/05/28 23:13:17;;;;;;;7.72;3.10;;;9.90;79.80;;;;;;4921585;29;20235;-87
2022/05/28 23:15:44;;;;;;;6.63;3.40;;;9.80;79.50;;;;;;4899095;29;21021;-87
2022/05/28 23:18:24;;;;;;;5.63;3.47;;;9.70;78.30;;;;;;4902971;29;20212;-87
2022/05/28 23:20:57;;;;;;;5.35;3.33;;;9.80;78.60;;;;;;4902053;29;20211;-87
2022/05/28 23:26:09;;;;;;;6.70;3.45;;;9.60;78.90;;;;;;4907401;29;20273;-87
2022/05/28 23:28:41;;;;;;;4.88;3.47;;;9.60;79.00;;;;;;4903237;29;20205;-87
2022/05/28 23:31:26;;;;;;;6.97;3.10;;;9.70;80.20;;;;;;4913976;29;20235;-87
2022/05/28 23:33:59;;;;;;;5.95;3.35;;;9.60;79.80;;;;;;4901790;29;20200;-88
2022/05/28 23:36:45;;;;;;;6.97;3.28;;;9.50;80.50;;;;;;4906161;29;20211;-88
2022/05/28 23:39:20;;;;;;;4.50;2.92;;;9.40;80.30;;;;;;4904803;29;20204;-89
2022/05/28 23:42:36;;;;;;;6.50;3.10;;;9.30;80.60;;;;;;4910691;29;20223;-87
2022/05/28 23:45:28;;;;;;;4.68;2.80;;;9.30;82.90;;;;;;4911018;29;20444;-87
2022/05/28 23:49:00;;;;;;;8.07;3.28;;;9.20;81.90;;;;;;4913542;29;20279;-87
2022/05/28 23:51:41;;;;;;;6.00;3.03;;;9.10;82.60;;;;;;4849327;29;20250;-87
2022/05/28 23:54:30;;;;;;;5.47;3.10;;;9.10;84.00;;;;;;4864159;29;20228;-87
